sensor_id;sensor_type;location;lat;lon;timestamp;pressure;altitude;pressure_sealevel;temperature;humidity
48364;BME280;34170;54.364;18.582;2024-01-07T00:02:08;100779.88;;;-2.82;83.77
48364;BME280;34170;54.364;18.582;2024-01-07T00:04:36;100778.34;;;-2.61;82.70
48364;BME280;34170;54.364;18.582;2024-01-07T00:07:04;100794.75;;;-2.26;82.02
48364;BME280;34170;54.364;18.582;2024-01-07T00:09:31;100791.25;;;-2.26;81.06
48364;BME280;34170;54.364;18.582;2024-01-07T00:11:59;100782.25;;;-1.94;81.24
48364;BME280;34170;54.364;18.582;2024-01-07T00:14:26;100791.47;;;-2.59;80.69
48364;BME280;34170;54.364;18.582;2024-01-07T00:16:54;100792.81;;;-2.21;80.73
48364;BME280;34170;54.364;18.582;2024-01-07T00:19:21;100801.41;;;-1.89;79.57
48364;BME280;34170;54.364;18.582;2024-01-07T00:21:49;100800.31;;;-2.08;78.26
48364;BME280;34170;54.364;18.582;2024-01-07T00:24:17;100810.25;;;-3.00;80.46
48364;BME280;34170;54.364;18.582;2024-01-07T00:26:45;100777.50;;;-2.90;83.14
48364;BME280;34170;54.364;18.582;2024-01-07T00:29:12;100808.31;;;-2.38;81.76
48364;BME280;34170;54.364;18.582;2024-01-07T00:31:40;100814.19;;;-2.85;81.55
48364;BME280;34170;54.364;18.582;2024-01-07T00:34:07;100794.47;;;-3.00;80.62
48364;BME280;34170;54.364;18.582;2024-01-07T00:36:35;100818.13;;;-3.30;82.73
48364;BME280;34170;54.364;18.582;2024-01-07T00:39:03;100811.31;;;-3.05;84.70
48364;BME280;34170;54.364;18.582;2024-01-07T00:41:31;100796.03;;;-3.24;85.18
48364;BME280;34170;54.364;18.582;2024-01-07T00:43:58;100817.13;;;-2.66;84.34
48364;BME280;34170;54.364;18.582;2024-01-07T00:46:26;100794.75;;;-2.81;85.13
48364;BME280;34170;54.364;18.582;2024-01-07T00:48:53;100810.56;;;-2.26;83.81
48364;BME280;34170;54.364;18.582;2024-01-07T00:51:21;100822.16;;;-2.32;80.98
48364;BME280;34170;54.364;18.582;2024-01-07T00:53:49;100820.06;;;-2.22;80.24
48364;BME280;34170;54.364;18.582;2024-01-07T00:56:16;100823.47;;;-3.01;82.20
48364;BME280;34170;54.364;18.582;2024-01-07T00:58:44;100814.56;;;-2.69;82.53
48364;BME280;34170;54.364;18.582;2024-01-07T01:01:11;100815.53;;;-2.72;82.29
48364;BME280;34170;54.364;18.582;2024-01-07T01:03:39;100827.56;;;-2.36;81.65
48364;BME280;34170;54.364;18.582;2024-01-07T01:06:07;100836.84;;;-2.51;81.74
48364;BME280;34170;54.364;18.582;2024-01-07T01:08:34;100825.06;;;-2.67;83.65
48364;BME280;34170;54.364;18.582;2024-01-07T01:11:02;100828.28;;;-2.86;84.89
48364;BME280;34170;54.364;18.582;2024-01-07T01:13:29;100831.13;;;-2.37;83.25
48364;BME280;34170;54.364;18.582;2024-01-07T01:15:57;100835.72;;;-2.72;84.54
48364;BME280;34170;54.364;18.582;2024-01-07T01:18:25;100838.50;;;-2.77;86.36
48364;BME280;34170;54.364;18.582;2024-01-07T01:20:52;100840.94;;;-2.42;85.38
48364;BME280;34170;54.364;18.582;2024-01-07T01:23:20;100847.19;;;-2.45;85.39
48364;BME280;34170;54.364;18.582;2024-01-07T01:25:48;100841.34;;;-3.13;88.57
48364;BME280;34170;54.364;18.582;2024-01-07T01:28:16;100858.25;;;-3.21;90.43
48364;BME280;34170;54.364;18.582;2024-01-07T01:30:43;100844.28;;;-3.55;91.90
48364;BME280;34170;54.364;18.582;2024-01-07T01:33:11;100858.34;;;-3.24;92.90
48364;BME280;34170;54.364;18.582;2024-01-07T01:35:39;100844.47;;;-3.31;92.38
48364;BME280;34170;54.364;18.582;2024-01-07T01:38:06;100844.09;;;-3.17;91.63
48364;BME280;34170;54.364;18.582;2024-01-07T01:40:34;100849.69;;;-3.30;92.86
48364;BME280;34170;54.364;18.582;2024-01-07T01:43:01;100845.41;;;-3.32;92.62
48364;BME280;34170;54.364;18.582;2024-01-07T01:45:29;100821.94;;;-3.40;93.83
48364;BME280;34170;54.364;18.582;2024-01-07T01:47:57;100852.47;;;-4.00;97.19
48364;BME280;34170;54.364;18.582;2024-01-07T01:50:25;100843.47;;;-3.90;97.40
48364;BME280;34170;54.364;18.582;2024-01-07T01:52:53;100853.88;;;-3.87;98.90
48364;BME280;34170;54.364;18.582;2024-01-07T01:55:21;100849.16;;;-3.41;97.36
48364;BME280;34170;54.364;18.582;2024-01-07T01:57:49;100855.00;;;-3.62;97.82
48364;BME280;34170;54.364;18.582;2024-01-07T02:00:18;100847.56;;;-3.47;96.87
48364;BME280;34170;54.364;18.582;2024-01-07T02:02:45;100860.91;;;-3.54;96.06
48364;BME280;34170;54.364;18.582;2024-01-07T02:05:13;100870.19;;;-3.74;97.11
48364;BME280;34170;54.364;18.582;2024-01-07T02:07:41;100856.78;;;-3.97;99.19
48364;BME280;34170;54.364;18.582;2024-01-07T02:10:09;100867.97;;;-3.56;97.50
48364;BME280;34170;54.364;18.582;2024-01-07T02:12:37;100852.00;;;-3.49;95.37
48364;BME280;34170;54.364;18.582;2024-01-07T02:15:05;100847.84;;;-3.57;95.39
48364;BME280;34170;54.364;18.582;2024-01-07T02:17:33;100840.72;;;-4.21;97.29
48364;BME280;34170;54.364;18.582;2024-01-07T02:20:01;100842.47;;;-3.86;96.91
48364;BME280;34170;54.364;18.582;2024-01-07T02:22:28;100864.69;;;-3.65;96.69
48364;BME280;34170;54.364;18.582;2024-01-07T02:24:56;100859.50;;;-3.68;96.47
48364;BME280;34170;54.364;18.582;2024-01-07T02:27:24;100861.69;;;-3.51;96.11
48364;BME280;34170;54.364;18.582;2024-01-07T02:29:52;100844.31;;;-3.56;95.61
48364;BME280;34170;54.364;18.582;2024-01-07T02:32:19;100861.88;;;-3.91;96.73
48364;BME280;34170;54.364;18.582;2024-01-07T02:34:47;100840.66;;;-3.84;96.96
48364;BME280;34170;54.364;18.582;2024-01-07T02:37:15;100881.94;;;-4.23;99.55
48364;BME280;34170;54.364;18.582;2024-01-07T02:39:42;100872.56;;;-3.99;99.21
48364;BME280;34170;54.364;18.582;2024-01-07T02:42:22;100854.38;;;-3.72;97.33
48364;BME280;34170;54.364;18.582;2024-01-07T02:44:50;100873.84;;;-3.47;96.93
48364;BME280;34170;54.364;18.582;2024-01-07T02:47:18;100870.03;;;-3.36;95.86
48364;BME280;34170;54.364;18.582;2024-01-07T02:49:45;100876.63;;;-3.53;96.23
48364;BME280;34170;54.364;18.582;2024-01-07T02:52:13;100877.59;;;-3.55;96.51
48364;BME280;34170;54.364;18.582;2024-01-07T02:54:41;100877.44;;;-3.84;98.17
48364;BME280;34170;54.364;18.582;2024-01-07T02:57:08;100854.50;;;-3.77;98.14
48364;BME280;34170;54.364;18.582;2024-01-07T02:59:36;100889.00;;;-3.89;100.00
48364;BME280;34170;54.364;18.582;2024-01-07T03:02:03;100889.13;;;-3.95;100.00
48364;BME280;34170;54.364;18.582;2024-01-07T03:04:31;100864.13;;;-4.12;100.00
48364;BME280;34170;54.364;18.582;2024-01-07T03:06:59;100869.75;;;-3.90;100.00
48364;BME280;34170;54.364;18.582;2024-01-07T03:09:26;100875.41;;;-3.72;98.72
48364;BME280;34170;54.364;18.582;2024-01-07T03:11:54;100853.16;;;-3.59;97.13
48364;BME280;34170;54.364;18.582;2024-01-07T03:14:22;100880.00;;;-3.48;97.33
48364;BME280;34170;54.364;18.582;2024-01-07T03:16:50;100881.16;;;-3.25;96.26
48364;BME280;34170;54.364;18.582;2024-01-07T03:19:18;100873.34;;;-3.59;96.88
48364;BME280;34170;54.364;18.582;2024-01-07T03:21:45;100864.97;;;-3.42;96.74
48364;BME280;34170;54.364;18.582;2024-01-07T03:24:13;100871.78;;;-3.67;97.82
48364;BME280;34170;54.364;18.582;2024-01-07T03:26:40;100854.03;;;-3.93;98.66
48364;BME280;34170;54.364;18.582;2024-01-07T03:29:08;100879.09;;;-3.79;99.35
48364;BME280;34170;54.364;18.582;2024-01-07T03:31:36;100878.34;;;-3.50;97.94
48364;BME280;34170;54.364;18.582;2024-01-07T03:34:03;100869.25;;;-3.71;97.63
48364;BME280;34170;54.364;18.582;2024-01-07T03:36:31;100876.59;;;-3.84;99.73
48364;BME280;34170;54.364;18.582;2024-01-07T03:38:59;100886.09;;;-3.46;98.13
48364;BME280;34170;54.364;18.582;2024-01-07T03:41:26;100889.09;;;-3.59;98.01
48364;BME280;34170;54.364;18.582;2024-01-07T03:43:55;100894.91;;;-3.47;98.30
48364;BME280;34170;54.364;18.582;2024-01-07T03:46:23;100872.59;;;-3.65;99.08
48364;BME280;34170;54.364;18.582;2024-01-07T03:48:51;100890.25;;;-3.70;99.30
48364;BME280;34170;54.364;18.582;2024-01-07T03:51:19;100893.50;;;-3.94;100.00
48364;BME280;34170;54.364;18.582;2024-01-07T03:53:47;100894.59;;;-3.69;98.84
48364;BME280;34170;54.364;18.582;2024-01-07T03:56:14;100888.66;;;-4.11;100.00
48364;BME280;34170;54.364;18.582;2024-01-07T03:58:41;100891.41;;;-4.16;100.00
48364;BME280;34170;54.364;18.582;2024-01-07T04:01:09;100879.91;;;-4.12;100.00
48364;BME280;34170;54.364;18.582;2024-01-07T04:03:37;100900.94;;;-3.77;99.80
48364;BME280;34170;54.364;18.582;2024-01-07T04:06:06;100894.25;;;-4.25;100.00
48364;BME280;34170;54.364;18.582;2024-01-07T04:08:35;100910.63;;;-4.15;100.00
48364;BME280;34170;54.364;18.582;2024-01-07T04:11:03;100884.03;;;-4.02;100.00
48364;BME280;34170;54.364;18.582;2024-01-07T04:13:30;100909.56;;;-4.07;100.00
48364;BME280;34170;54.364;18.582;2024-01-07T04:15:58;100904.72;;;-4.24;100.00
48364;BME280;34170;54.364;18.582;2024-01-07T04:18:25;100880.84;;;-4.14;100.00
48364;BME280;34170;54.364;18.582;2024-01-07T04:20:53;100889.75;;;-4.20;100.00
48364;BME280;34170;54.364;18.582;2024-01-07T04:23:21;100886.13;;;-4.16;100.00
48364;BME280;34170;54.364;18.582;2024-01-07T04:25:48;100915.25;;;-4.25;100.00
48364;BME280;34170;54.364;18.582;2024-01-07T04:28:16;100896.16;;;-3.96;100.00
48364;BME280;34170;54.364;18.582;2024-01-07T04:30:43;100914.81;;;-3.72;100.00
48364;BME280;34170;54.364;18.582;2024-01-07T04:33:11;100896.81;;;-3.86;99.45
48364;BME280;34170;54.364;18.582;2024-01-07T04:35:39;100905.75;;;-4.31;100.00
48364;BME280;34170;54.364;18.582;2024-01-07T04:38:06;100904.75;;;-3.89;100.00
48364;BME280;34170;54.364;18.582;2024-01-07T04:40:35;100919.25;;;-4.09;100.00
48364;BME280;34170;54.364;18.582;2024-01-07T04:43:02;100916.84;;;-4.18;100.00
48364;BME280;34170;54.364;18.582;2024-01-07T04:45:30;100898.25;;;-4.10;100.00
48364;BME280;34170;54.364;18.582;2024-01-07T04:47:58;100896.94;;;-3.92;100.00
48364;BME280;34170;54.364;18.582;2024-01-07T04:50:25;100889.66;;;-4.17;100.00
48364;BME280;34170;54.364;18.582;2024-01-07T04:52:53;100921.66;;;-4.37;100.00
48364;BME280;34170;54.364;18.582;2024-01-07T04:55:20;100933.41;;;-4.14;100.00
48364;BME280;34170;54.364;18.582;2024-01-07T04:57:48;100921.50;;;-3.93;100.00
48364;BME280;34170;54.364;18.582;2024-01-07T05:00:16;100900.13;;;-4.53;100.00
48364;BME280;34170;54.364;18.582;2024-01-07T05:02:43;100905.06;;;-4.39;100.00
48364;BME280;34170;54.364;18.582;2024-01-07T05:05:11;100888.53;;;-4.43;100.00
48364;BME280;34170;54.364;18.582;2024-01-07T05:07:39;100920.34;;;-4.19;100.00
48364;BME280;34170;54.364;18.582;2024-01-07T05:10:06;100924.97;;;-4.29;100.00
48364;BME280;34170;54.364;18.582;2024-01-07T05:12:34;100918.19;;;-4.02;100.00
48364;BME280;34170;54.364;18.582;2024-01-07T05:15:02;100905.47;;;-4.18;100.00
48364;BME280;34170;54.364;18.582;2024-01-07T05:17:30;100938.44;;;-4.44;100.00
48364;BME280;34170;54.364;18.582;2024-01-07T05:19:57;100911.09;;;-4.74;100.00
48364;BME280;34170;54.364;18.582;2024-01-07T05:22:25;100937.63;;;-4.46;100.00
48364;BME280;34170;54.364;18.582;2024-01-07T05:24:52;100939.84;;;-4.68;100.00
48364;BME280;34170;54.364;18.582;2024-01-07T05:27:20;100916.56;;;-5.27;100.00
48364;BME280;34170;54.364;18.582;2024-01-07T05:29:48;100930.75;;;-5.39;100.00
48364;BME280;34170;54.364;18.582;2024-01-07T05:32:16;100939.38;;;-5.32;100.00
48364;BME280;34170;54.364;18.582;2024-01-07T05:34:44;100933.25;;;-5.33;100.00
48364;BME280;34170;54.364;18.582;2024-01-07T05:37:11;100941.25;;;-5.41;100.00
48364;BME280;34170;54.364;18.582;2024-01-07T05:39:39;100963.72;;;-5.26;100.00
48364;BME280;34170;54.364;18.582;2024-01-07T05:42:07;100960.63;;;-5.48;100.00
48364;BME280;34170;54.364;18.582;2024-01-07T05:44:34;100956.09;;;-4.93;99.42
48364;BME280;34170;54.364;18.582;2024-01-07T05:47:02;100940.88;;;-5.69;100.00
48364;BME280;34170;54.364;18.582;2024-01-07T05:49:29;100966.72;;;-5.47;100.00
48364;BME280;34170;54.364;18.582;2024-01-07T05:51:57;100950.66;;;-5.79;100.00
48364;BME280;34170;54.364;18.582;2024-01-07T05:54:25;100988.16;;;-5.75;100.00
48364;BME280;34170;54.364;18.582;2024-01-07T05:56:55;100951.31;;;-5.66;98.97
48364;BME280;34170;54.364;18.582;2024-01-07T05:59:23;100997.19;;;-5.95;100.00
48364;BME280;34170;54.364;18.582;2024-01-07T06:01:50;100960.81;;;-5.60;99.48
48364;BME280;34170;54.364;18.582;2024-01-07T06:04:18;100961.16;;;-5.80;99.27
48364;BME280;34170;54.364;18.582;2024-01-07T06:06:46;100977.56;;;-5.69;98.95
48364;BME280;34170;54.364;18.582;2024-01-07T06:09:18;100991.66;;;-5.76;96.55
48364;BME280;34170;54.364;18.582;2024-01-07T06:11:45;100978.13;;;-6.03;95.90
48364;BME280;34170;54.364;18.582;2024-01-07T06:14:13;100987.97;;;-5.64;96.49
48364;BME280;34170;54.364;18.582;2024-01-07T06:16:41;100964.78;;;-5.89;95.59
48364;BME280;34170;54.364;18.582;2024-01-07T06:19:09;100994.97;;;-5.63;95.33
48364;BME280;34170;54.364;18.582;2024-01-07T06:21:37;101010.88;;;-5.74;94.68
48364;BME280;34170;54.364;18.582;2024-01-07T06:24:05;100975.44;;;-5.97;94.77
48364;BME280;34170;54.364;18.582;2024-01-07T06:26:32;100972.91;;;-6.03;93.19
48364;BME280;34170;54.364;18.582;2024-01-07T06:29:00;101007.97;;;-5.57;92.01
48364;BME280;34170;54.364;18.582;2024-01-07T06:31:28;101006.53;;;-5.77;91.95
48364;BME280;34170;54.364;18.582;2024-01-07T06:33:56;101022.19;;;-5.73;90.35
48364;BME280;34170;54.364;18.582;2024-01-07T06:36:25;100991.47;;;-5.65;89.77
48364;BME280;34170;54.364;18.582;2024-01-07T06:38:52;101020.66;;;-5.87;89.55
48364;BME280;34170;54.364;18.582;2024-01-07T06:41:20;100993.16;;;-6.14;90.01
48364;BME280;34170;54.364;18.582;2024-01-07T06:43:47;100993.44;;;-5.78;88.72
48364;BME280;34170;54.364;18.582;2024-01-07T06:46:17;101018.69;;;-5.72;89.08
48364;BME280;34170;54.364;18.582;2024-01-07T06:48:44;100994.22;;;-6.27;89.46
48364;BME280;34170;54.364;18.582;2024-01-07T06:51:17;101021.81;;;-6.03;89.24
48364;BME280;34170;54.364;18.582;2024-01-07T06:53:45;101033.94;;;-5.43;88.78
48364;BME280;34170;54.364;18.582;2024-01-07T06:56:13;101029.81;;;-5.58;89.32
48364;BME280;34170;54.364;18.582;2024-01-07T06:58:40;100999.34;;;-5.65;89.18
48364;BME280;34170;54.364;18.582;2024-01-07T07:01:08;101035.53;;;-5.90;88.53
48364;BME280;34170;54.364;18.582;2024-01-07T07:03:35;101031.56;;;-5.59;89.33
48364;BME280;34170;54.364;18.582;2024-01-07T07:06:03;101036.63;;;-5.46;89.29
48364;BME280;34170;54.364;18.582;2024-01-07T07:08:31;101014.31;;;-5.72;89.21
48364;BME280;34170;54.364;18.582;2024-01-07T07:11:00;101040.53;;;-5.73;87.68
48364;BME280;34170;54.364;18.582;2024-01-07T07:13:28;101053.03;;;-5.93;87.01
48364;BME280;34170;54.364;18.582;2024-01-07T07:15:55;101047.59;;;-5.79;87.23
48364;BME280;34170;54.364;18.582;2024-01-07T07:18:23;101055.00;;;-6.04;87.68
48364;BME280;34170;54.364;18.582;2024-01-07T07:20:52;101056.25;;;-5.73;85.49
48364;BME280;34170;54.364;18.582;2024-01-07T07:23:19;101051.44;;;-6.01;83.89
48364;BME280;34170;54.364;18.582;2024-01-07T07:25:47;101055.03;;;-6.07;85.69
48364;BME280;34170;54.364;18.582;2024-01-07T07:28:14;101062.91;;;-6.08;83.39
48364;BME280;34170;54.364;18.582;2024-01-07T07:30:43;101049.25;;;-6.34;84.37
48364;BME280;34170;54.364;18.582;2024-01-07T07:33:14;101050.91;;;-6.25;84.61
48364;BME280;34170;54.364;18.582;2024-01-07T07:35:42;101053.38;;;-6.14;83.41
48364;BME280;34170;54.364;18.582;2024-01-07T07:38:09;101068.75;;;-5.91;83.19
48364;BME280;34170;54.364;18.582;2024-01-07T07:40:37;101075.09;;;-6.04;83.05
48364;BME280;34170;54.364;18.582;2024-01-07T07:43:04;101042.78;;;-6.06;82.59
48364;BME280;34170;54.364;18.582;2024-01-07T07:45:32;101054.66;;;-6.47;81.54
48364;BME280;34170;54.364;18.582;2024-01-07T07:48:00;101070.75;;;-6.07;81.08
48364;BME280;34170;54.364;18.582;2024-01-07T07:50:27;101049.78;;;-6.07;82.75
48364;BME280;34170;54.364;18.582;2024-01-07T07:52:55;101057.50;;;-5.98;82.60
48364;BME280;34170;54.364;18.582;2024-01-07T07:55:23;101082.72;;;-5.92;82.82
48364;BME280;34170;54.364;18.582;2024-01-07T07:57:50;101076.91;;;-6.09;85.01
48364;BME280;34170;54.364;18.582;2024-01-07T08:00:19;101079.25;;;-5.94;85.85
48364;BME280;34170;54.364;18.582;2024-01-07T08:02:47;101084.63;;;-6.02;86.11
48364;BME280;34170;54.364;18.582;2024-01-07T08:05:14;101097.91;;;-6.17;86.57
48364;BME280;34170;54.364;18.582;2024-01-07T08:07:42;101084.91;;;-6.20;87.27
48364;BME280;34170;54.364;18.582;2024-01-07T08:10:10;101083.75;;;-6.74;89.36
48364;BME280;34170;54.364;18.582;2024-01-07T08:12:37;101104.50;;;-6.57;88.89
48364;BME280;34170;54.364;18.582;2024-01-07T08:15:06;101128.84;;;-6.47;88.29
48364;BME280;34170;54.364;18.582;2024-01-07T08:17:33;101116.81;;;-6.63;85.44
48364;BME280;34170;54.364;18.582;2024-01-07T08:20:01;101101.75;;;-6.44;83.85
48364;BME280;34170;54.364;18.582;2024-01-07T08:22:29;101114.41;;;-6.09;82.06
48364;BME280;34170;54.364;18.582;2024-01-07T08:24:57;101119.50;;;-5.97;79.97
48364;BME280;34170;54.364;18.582;2024-01-07T08:27:25;101110.63;;;-6.56;78.79
48364;BME280;34170;54.364;18.582;2024-01-07T08:29:54;101100.31;;;-6.73;79.92
48364;BME280;34170;54.364;18.582;2024-01-07T08:32:21;101121.97;;;-6.57;79.70
48364;BME280;34170;54.364;18.582;2024-01-07T08:34:50;101136.81;;;-6.58;78.97
48364;BME280;34170;54.364;18.582;2024-01-07T08:37:52;101138.13;;;-6.20;79.28
48364;BME280;34170;54.364;18.582;2024-01-07T08:40:24;101141.97;;;-6.53;79.46
48364;BME280;34170;54.364;18.582;2024-01-07T08:43:12;101146.34;;;-6.52;79.40
48364;BME280;34170;54.364;18.582;2024-01-07T08:45:54;101142.78;;;-6.48;79.05
48364;BME280;34170;54.364;18.582;2024-01-07T08:48:29;101160.13;;;-6.35;77.41
48364;BME280;34170;54.364;18.582;2024-01-07T08:51:24;101125.75;;;-6.89;79.70
48364;BME280;34170;54.364;18.582;2024-01-07T08:54:10;101158.25;;;-6.25;79.75
48364;BME280;34170;54.364;18.582;2024-01-07T08:56:46;101154.06;;;-6.41;78.98
48364;BME280;34170;54.364;18.582;2024-01-07T08:59:27;101152.44;;;-6.55;80.45
48364;BME280;34170;54.364;18.582;2024-01-07T09:02:05;101155.31;;;-6.78;79.80
48364;BME280;34170;54.364;18.582;2024-01-07T09:04:41;101163.03;;;-6.65;78.77
48364;BME280;34170;54.364;18.582;2024-01-07T09:07:23;101163.63;;;-6.40;79.12
48364;BME280;34170;54.364;18.582;2024-01-07T09:09:58;101171.13;;;-6.90;80.92
48364;BME280;34170;54.364;18.582;2024-01-07T09:12:53;101162.13;;;-6.61;81.79
48364;BME280;34170;54.364;18.582;2024-01-07T09:15:21;101168.00;;;-6.38;81.45
48364;BME280;34170;54.364;18.582;2024-01-07T09:17:52;101158.91;;;-6.88;84.87
48364;BME280;34170;54.364;18.582;2024-01-07T09:20:26;101167.19;;;-6.46;84.91
48364;BME280;34170;54.364;18.582;2024-01-07T09:22:59;101163.75;;;-6.51;85.63
48364;BME280;34170;54.364;18.582;2024-01-07T09:25:39;101152.66;;;-6.75;85.51
48364;BME280;34170;54.364;18.582;2024-01-07T09:28:23;101168.34;;;-6.75;85.76
48364;BME280;34170;54.364;18.582;2024-01-07T09:31:03;101177.97;;;-6.77;86.92
48364;BME280;34170;54.364;18.582;2024-01-07T09:33:38;101149.28;;;-6.84;86.58
48364;BME280;34170;54.364;18.582;2024-01-07T09:36:19;101160.97;;;-6.33;83.90
48364;BME280;34170;54.364;18.582;2024-01-07T09:38:56;101164.66;;;-6.54;83.62
48364;BME280;34170;54.364;18.582;2024-01-07T09:41:24;101158.34;;;-6.33;83.41
48364;BME280;34170;54.364;18.582;2024-01-07T09:43:54;101156.47;;;-6.21;83.61
48364;BME280;34170;54.364;18.582;2024-01-07T09:46:30;101150.63;;;-6.46;83.29
48364;BME280;34170;54.364;18.582;2024-01-07T09:49:04;101164.59;;;-5.76;81.98
48364;BME280;34170;54.364;18.582;2024-01-07T09:51:34;101145.50;;;-6.57;85.96
48364;BME280;34170;54.364;18.582;2024-01-07T09:54:09;101172.31;;;-6.37;85.66
48364;BME280;34170;54.364;18.582;2024-01-07T09:57:05;101146.56;;;-5.99;83.89
48364;BME280;34170;54.364;18.582;2024-01-07T09:59:45;101153.13;;;-6.34;84.05
48364;BME280;34170;54.364;18.582;2024-01-07T10:02:24;101166.13;;;-6.28;84.13
48364;BME280;34170;54.364;18.582;2024-01-07T10:05:01;101148.25;;;-6.69;84.98
48364;BME280;34170;54.364;18.582;2024-01-07T10:07:41;101148.25;;;-6.68;87.15
48364;BME280;34170;54.364;18.582;2024-01-07T10:10:12;101159.50;;;-6.60;86.59
48364;BME280;34170;54.364;18.582;2024-01-07T10:12:40;101175.16;;;-6.58;86.34
48364;BME280;34170;54.364;18.582;2024-01-07T10:15:09;101187.50;;;-6.73;83.41
48364;BME280;34170;54.364;18.582;2024-01-07T10:17:46;101163.09;;;-6.73;81.81
48364;BME280;34170;54.364;18.582;2024-01-07T10:20:16;101198.84;;;-6.71;80.90
48364;BME280;34170;54.364;18.582;2024-01-07T10:22:50;101178.19;;;-7.03;80.77
48364;BME280;34170;54.364;18.582;2024-01-07T10:25:18;101176.28;;;-6.84;83.35
48364;BME280;34170;54.364;18.582;2024-01-07T10:27:46;101179.38;;;-6.42;81.96
48364;BME280;34170;54.364;18.582;2024-01-07T10:30:16;101190.00;;;-6.57;80.40
48364;BME280;34170;54.364;18.582;2024-01-07T10:32:44;101188.09;;;-6.43;80.63
48364;BME280;34170;54.364;18.582;2024-01-07T10:35:13;101180.72;;;-6.05;79.76
48364;BME280;34170;54.364;18.582;2024-01-07T10:37:43;101174.38;;;-5.89;79.88
48364;BME280;34170;54.364;18.582;2024-01-07T10:40:12;101181.78;;;-6.20;80.94
48364;BME280;34170;54.364;18.582;2024-01-07T10:42:43;101182.53;;;-6.12;82.38
48364;BME280;34170;54.364;18.582;2024-01-07T10:45:12;101167.97;;;-6.36;84.20
48364;BME280;34170;54.364;18.582;2024-01-07T10:47:40;101188.03;;;-6.35;82.55
48364;BME280;34170;54.364;18.582;2024-01-07T10:50:11;101141.91;;;-6.47;83.83
48364;BME280;34170;54.364;18.582;2024-01-07T10:52:41;101166.06;;;-5.57;80.60
48364;BME280;34170;54.364;18.582;2024-01-07T10:55:10;101165.09;;;-5.49;76.95
48364;BME280;34170;54.364;18.582;2024-01-07T11:00:09;101155.38;;;-6.05;77.08
48364;BME280;34170;54.364;18.582;2024-01-07T11:02:54;101143.47;;;-6.30;77.05
48364;BME280;34170;54.364;18.582;2024-01-07T11:05:31;101152.31;;;-6.41;78.25
48364;BME280;34170;54.364;18.582;2024-01-07T11:08:15;101139.25;;;-6.44;77.67
48364;BME280;34170;54.364;18.582;2024-01-07T11:10:53;101126.72;;;-6.17;77.60
48364;BME280;34170;54.364;18.582;2024-01-07T11:16:01;101155.41;;;-5.44;74.87
48364;BME280;34170;54.364;18.582;2024-01-07T11:18:30;101175.75;;;-6.28;75.25
48364;BME280;34170;54.364;18.582;2024-01-07T11:21:02;101170.75;;;-6.50;78.05
48364;BME280;34170;54.364;18.582;2024-01-07T11:23:32;101144.66;;;-6.58;79.21
48364;BME280;34170;54.364;18.582;2024-01-07T11:26:09;101150.25;;;-6.11;78.09
48364;BME280;34170;54.364;18.582;2024-01-07T11:28:50;101135.22;;;-5.97;77.26
48364;BME280;34170;54.364;18.582;2024-01-07T11:31:20;101156.47;;;-6.24;78.89
48364;BME280;34170;54.364;18.582;2024-01-07T11:33:49;101164.09;;;-6.03;77.94
48364;BME280;34170;54.364;18.582;2024-01-07T11:36:18;101191.03;;;-6.72;79.39
48364;BME280;34170;54.364;18.582;2024-01-07T11:38:48;101190.03;;;-6.60;78.48
48364;BME280;34170;54.364;18.582;2024-01-07T11:41:21;101169.38;;;-6.91;79.31
48364;BME280;34170;54.364;18.582;2024-01-07T11:43:56;101162.28;;;-6.80;78.75
48364;BME280;34170;54.364;18.582;2024-01-07T11:46:32;101172.72;;;-6.74;79.23
48364;BME280;34170;54.364;18.582;2024-01-07T11:49:00;101169.88;;;-6.49;78.49
48364;BME280;34170;54.364;18.582;2024-01-07T11:51:31;101189.03;;;-6.47;77.88
48364;BME280;34170;54.364;18.582;2024-01-07T11:54:00;101158.06;;;-6.93;78.15
48364;BME280;34170;54.364;18.582;2024-01-07T11:56:28;101163.94;;;-6.68;79.57
48364;BME280;34170;54.364;18.582;2024-01-07T11:58:56;101162.69;;;-6.33;78.18
48364;BME280;34170;54.364;18.582;2024-01-07T12:01:25;101180.25;;;-6.43;77.29
48364;BME280;34170;54.364;18.582;2024-01-07T12:03:54;101157.53;;;-6.41;76.95
48364;BME280;34170;54.364;18.582;2024-01-07T12:06:22;101176.16;;;-6.67;77.93
48364;BME280;34170;54.364;18.582;2024-01-07T12:08:51;101174.31;;;-6.60;77.54
48364;BME280;34170;54.364;18.582;2024-01-07T12:11:20;101189.34;;;-6.79;76.53
48364;BME280;34170;54.364;18.582;2024-01-07T12:13:48;101165.00;;;-6.89;78.07
48364;BME280;34170;54.364;18.582;2024-01-07T12:16:18;101152.72;;;-6.82;78.55
48364;BME280;34170;54.364;18.582;2024-01-07T12:18:46;101175.00;;;-6.41;77.07
48364;BME280;34170;54.364;18.582;2024-01-07T12:21:19;101195.50;;;-6.88;77.68
48364;BME280;34170;54.364;18.582;2024-01-07T12:23:50;101190.19;;;-6.77;77.10
48364;BME280;34170;54.364;18.582;2024-01-07T12:26:18;101179.63;;;-6.68;76.62
48364;BME280;34170;54.364;18.582;2024-01-07T12:28:56;101187.50;;;-6.69;77.07
48364;BME280;34170;54.364;18.582;2024-01-07T12:31:27;101179.94;;;-7.06;76.44
48364;BME280;34170;54.364;18.582;2024-01-07T12:33:56;101179.72;;;-6.77;77.17
48364;BME280;34170;54.364;18.582;2024-01-07T12:36:24;101186.72;;;-6.81;76.65
48364;BME280;34170;54.364;18.582;2024-01-07T12:38:52;101174.44;;;-6.73;76.18
48364;BME280;34170;54.364;18.582;2024-01-07T12:41:22;101188.44;;;-6.80;76.59
48364;BME280;34170;54.364;18.582;2024-01-07T12:43:50;101173.34;;;-6.50;75.44
48364;BME280;34170;54.364;18.582;2024-01-07T12:46:18;101182.16;;;-6.57;75.24
48364;BME280;34170;54.364;18.582;2024-01-07T12:48:45;101177.97;;;-6.77;75.18
48364;BME280;34170;54.364;18.582;2024-01-07T12:51:13;101175.41;;;-6.81;74.54
48364;BME280;34170;54.364;18.582;2024-01-07T12:53:41;101179.41;;;-6.45;73.98
48364;BME280;34170;54.364;18.582;2024-01-07T12:56:09;101184.91;;;-6.73;74.35